Time;durP1;ratioP1;P1;durP2;ratioP2;P2;SDS_P1;SDS_P2;PMS_P1;PMS_P2;Temp;Humidity;BMP_temperature;BMP_pressure;BME280_temperature;BME280_humidity;BME280_pressure;Samples;Min_cycle;Max_cycle;Signal;HPM_P1;HPM_P2
2022/07/05 00:00:39;;;;;;;3.30;1.38;;;;;;;17.13;63.75;101097.41;2088712;28;20068;-69
2022/07/05 00:01:41;;;;;;;1.83;1.10;;;;;;;17.15;63.57;101099.81;2091579;28;20045;-69
2022/07/05 00:02:43;;;;;;;3.83;1.23;;;;;;;17.15;63.80;101094.38;2096730;28;20071;-69
2022/07/05 00:03:47;;;;;;;4.00;1.13;;;;;;;17.13;63.88;101091.97;2094712;28;20393;-69
2022/07/05 00:04:50;;;;;;;3.85;1.30;;;;;;;17.14;63.62;101099.00;2098752;28;20135;-69
2022/07/05 00:05:55;;;;;;;2.83;1.23;;;;;;;17.14;63.62;101098.19;2097791;28;20048;-69
2022/07/05 00:08:18;;;;;;;2.17;1.10;;;;;;;17.09;63.72;101090.19;2111599;27;20039;-68
2022/07/05 00:09:20;;;;;;;1.88;1.10;;;;;;;17.08;63.94;101091.28;2111062;28;20044;-69
2022/07/05 00:10:26;;;;;;;2.60;1.20;;;;;;;17.05;63.95;101094.63;2097975;28;20052;-69
2022/07/05 00:11:28;;;;;;;1.98;1.27;;;;;;;17.05;63.98;101089.19;2098127;28;20052;-69
2022/07/05 00:12:33;;;;;;;3.17;1.23;;;;;;;17.05;64.09;101092.69;2102300;28;20039;-69
2022/07/05 00:13:36;;;;;;;2.40;1.15;;;;;;;17.03;64.28;101097.66;2090454;28;20040;-70
2022/07/05 00:14:40;;;;;;;2.78;1.17;;;;;;;17.02;64.24;101093.31;2097707;28;20083;-69
2022/07/05 00:15:43;;;;;;;2.53;1.10;;;;;;;17.04;64.35;101093.00;2100699;28;20500;-68
2022/07/05 00:16:45;;;;;;;2.92;1.27;;;;;;;17.06;64.41;101091.59;2089996;28;20112;-68
2022/07/05 00:17:48;;;;;;;2.13;0.90;;;;;;;17.08;64.12;101091.28;2097952;28;20041;-69
2022/07/05 00:18:50;;;;;;;1.65;0.90;;;;;;;17.09;64.25;101095.63;2114965;28;20092;-69
2022/07/05 00:19:53;;;;;;;4.43;1.17;;;;;;;17.11;64.26;101085.22;2100295;28;20464;-69
2022/07/05 00:20:55;;;;;;;4.57;1.20;;;;;;;17.12;64.06;101086.84;2095333;28;20477;-69
2022/07/05 00:21:57;;;;;;;3.05;1.08;;;;;;;17.13;64.29;101086.53;2098079;28;20409;-69
2022/07/05 00:22:59;;;;;;;2.65;1.00;;;;;;;17.16;64.16;101093.25;2095137;28;20467;-69
2022/07/05 00:24:02;;;;;;;2.03;1.02;;;;;;;17.13;64.00;101091.97;2106110;28;20047;-69
2022/07/05 00:25:06;;;;;;;2.25;1.00;;;;;;;17.12;64.17;101095.00;2106646;28;20048;-69
2022/07/05 00:26:10;;;;;;;3.25;1.10;;;;;;;17.11;64.10;101096.09;2096982;28;20040;-69
2022/07/05 00:27:13;;;;;;;1.83;1.17;;;;;;;17.10;63.92;101086.34;2102058;28;20052;-69
2022/07/05 00:28:15;;;;;;;2.40;1.10;;;;;;;17.10;64.19;101092.59;2089663;28;20037;-69
2022/07/05 00:29:17;;;;;;;2.67;0.98;;;;;;;17.11;64.21;101083.31;2093967;28;20052;-69
2022/07/05 00:30:22;;;;;;;6.82;1.20;;;;;;;17.11;64.25;101096.09;2098226;28;20047;-69
2022/07/05 00:31:26;;;;;;;2.00;1.00;;;;;;;17.13;64.25;101091.16;2106068;28;20043;-69
2022/07/05 00:32:29;;;;;;;3.42;1.08;;;;;;;17.12;64.14;101084.94;2097797;28;20059;-70
2022/07/05 00:33:31;;;;;;;2.65;1.15;;;;;;;17.12;64.06;101090.38;2090064;28;20060;-70
2022/07/05 00:34:32;;;;;;;2.55;1.20;;;;;;;17.13;64.24;101085.72;2101782;28;20419;-70
2022/07/05 00:35:34;;;;;;;1.30;0.85;;;;;;;17.12;64.16;101090.38;2083524;28;20068;-70
2022/07/05 00:36:36;;;;;;;3.25;1.15;;;;;;;17.11;64.09;101087.94;2082351;28;20045;-70
2022/07/05 00:37:38;;;;;;;1.88;0.90;;;;;;;17.09;64.17;101090.97;2081564;28;20041;-70
2022/07/05 00:38:40;;;;;;;3.38;0.80;;;;;;;17.07;64.08;101089.69;2082620;28;20772;-69
2022/07/05 00:39:47;;;;;;;2.22;0.98;;;;;;;17.10;64.19;101099.94;2097472;28;20475;-69
2022/07/05 00:40:51;;;;;;;2.53;0.95;;;;;;;17.09;64.38;101090.97;2104300;28;20098;-70
2022/07/05 00:41:55;;;;;;;2.78;1.40;;;;;;;17.10;64.08;101094.50;2105253;28;20052;-70
2022/07/05 00:42:59;;;;;;;2.80;0.90;;;;;;;17.11;63.90;101096.91;2098709;28;20055;-70
2022/07/05 00:44:10;;;;;;;2.42;0.90;;;;;;;17.09;63.94;101090.97;2105566;28;20059;-70
2022/07/05 00:45:14;;;;;;;;;;;;;;;17.10;64.25;101091.78;2103299;28;20032;-70
2022/07/05 00:46:18;;;;;;;2.00;1.20;;;;;;;17.10;64.09;101097.22;2107244;28;19920;-70
2022/07/05 00:47:23;;;;;;;1.67;0.90;;;;;;;17.08;64.21;101097.50;2097829;28;20056;-69
2022/07/05 00:48:24;;;;;;;1.33;0.90;;;;;;;17.07;64.12;101101.34;2075219;28;20050;-70
2022/07/05 00:49:29;;;;;;;2.25;0.98;;;;;;;17.06;64.03;101097.03;2077663;28;20420;-70
2022/07/05 00:50:31;;;;;;;4.75;1.10;;;;;;;17.02;64.20;101100.66;2105589;28;20043;-70
2022/07/05 00:51:40;;;;;;;2.30;1.00;;;;;;;17.02;64.46;101103.38;2096665;28;20500;-69
2022/07/05 00:52:43;;;;;;;2.42;1.05;;;;;;;17.03;64.16;101099.56;2086370;28;20059;-70
2022/07/05 00:53:45;;;;;;;4.25;1.20;;;;;;;17.02;64.37;101103.38;2099015;28;20479;-70
2022/07/05 00:54:50;;;;;;;2.85;1.13;;;;;;;17.01;64.46;101102.59;2097870;28;20053;-70
2022/07/05 00:55:54;;;;;;;4.43;1.10;;;;;;;17.00;64.49;101111.84;2097578;28;20055;-70
2022/07/05 00:56:58;;;;;;;5.05;1.00;;;;;;;17.02;64.59;101111.53;2098878;28;20317;-70
2022/07/05 00:58:04;;;;;;;3.75;1.10;;;;;;;17.02;64.61;101106.09;2104391;28;20055;-70
2022/07/05 00:59:08;;;;;;;3.75;1.20;;;;;;;17.02;64.42;101106.91;2081982;28;20037;-70
2022/07/05 01:00:12;;;;;;;3.30;1.10;;;;;;;16.99;64.53;101104.81;2084690;28;20600;-70
2022/07/05 01:01:16;;;;;;;1.00;0.80;;;;;;;16.97;64.50;101101.59;2081849;28;20612;-70
2022/07/05 01:02:19;;;;;;;5.50;1.00;;;;;;;16.96;64.67;101112.75;2090042;28;20504;-70
2022/07/05 01:03:21;;;;;;;2.25;0.90;;;;;;;16.97;64.52;101111.66;2097793;28;20416;-70
2022/07/05 01:04:23;;;;;;;1.45;1.00;;;;;;;16.96;64.59;101110.88;2089449;28;20049;-69
2022/07/05 01:05:27;;;;;;;2.95;1.10;;;;;;;16.99;64.46;101112.16;2092979;28;20048;-70
2022/07/05 01:06:28;;;;;;;2.40;0.90;;;;;;;16.99;64.38;101112.16;2083652;28;20045;-69
2022/07/05 01:07:30;;;;;;;2.70;0.98;;;;;;;17.00;64.45;101119.19;2081306;28;20041;-70
2022/07/05 01:08:39;;;;;;;5.20;1.10;;;;;;;17.01;64.40;101109.94;2089649;28;20508;-69
2022/07/05 01:09:44;;;;;;;2.55;1.00;;;;;;;17.01;64.42;101118.09;2098181;28;20424;-69
2022/07/05 01:10:51;;;;;;;2.05;1.10;;;;;;;17.00;64.42;101111.84;2090509;28;20049;-70
2022/07/05 01:11:57;;;;;;;5.53;1.10;;;;;;;17.01;64.54;101112.66;2090387;28;20040;-70
2022/07/05 01:12:59;;;;;;;3.70;1.00;;;;;;;17.00;64.76;101111.84;2105167;28;20578;-70
2022/07/05 01:14:01;;;;;;;1.98;0.90;;;;;;;16.99;64.75;101115.69;2114616;28;20042;-69
2022/07/05 01:15:07;;;;;;;1.77;0.90;;;;;;;16.96;64.50;101113.59;2088917;28;20045;-69
2022/07/05 01:16:09;;;;;;;1.30;1.10;;;;;;;16.90;64.32;101110.19;2090003;28;20040;-70
2022/07/05 01:17:12;;;;;;;5.47;1.13;;;;;;;16.90;64.71;101107.47;2097761;28;20050;-69
2022/07/05 01:18:14;;;;;;;2.75;1.05;;;;;;;16.88;64.61;101106.97;2097589;28;20041;-71
2022/07/05 01:19:20;;;;;;;2.17;0.80;;;;;;;16.88;65.25;101106.97;2105357;28;20039;-70
2022/07/05 01:20:23;;;;;;;1.50;0.82;;;;;;;16.90;65.24;101106.66;2114644;28;20054;-70
2022/07/05 01:21:32;;;;;;;2.25;1.08;;;;;;;16.90;65.11;101107.47;2114584;28;20051;-70
2022/07/05 01:23:02;;;;;;;3.25;1.00;;;;;;;16.87;65.07;101105.38;2104100;28;20040;-70
2022/07/05 01:24:08;;;;;;;2.45;0.95;;;;;;;16.87;64.98;101094.50;2080261;28;20041;-70
2022/07/05 01:25:20;;;;;;;3.38;1.05;;;;;;;16.88;64.94;101098.81;2102925;27;20121;-70
2022/07/05 01:26:22;;;;;;;2.47;0.90;;;;;;;16.91;64.73;101097.41;2107662;28;20036;-70
2022/07/05 01:27:25;;;;;;;3.38;1.10;;;;;;;16.91;64.81;101098.19;2086441;28;20041;-70
2022/07/05 01:28:29;;;;;;;2.58;0.85;;;;;;;16.91;64.84;101100.91;2081873;28;20045;-70
2022/07/05 01:29:34;;;;;;;1.60;0.80;;;;;;;16.93;64.84;101095.19;2090587;28;20052;-70
2022/07/05 01:30:36;;;;;;;2.55;0.90;;;;;;;16.94;64.63;101093.28;2097878;28;20052;-69
2022/07/05 01:31:42;;;;;;;2.08;0.70;;;;;;;16.94;64.56;101094.06;2097329;28;20044;-70
2022/07/05 01:32:44;;;;;;;2.33;1.10;;;;;;;16.95;64.65;101094.88;2106570;28;20031;-71
2022/07/05 01:33:45;;;;;;;4.65;1.10;;;;;;;16.95;64.61;101090.22;2105688;28;20040;-71
2022/07/05 01:34:53;;;;;;;2.08;0.95;;;;;;;16.98;64.68;101088.81;2097658;28;20049;-70
2022/07/05 01:35:59;;;;;;;1.65;1.00;;;;;;;16.98;64.59;101086.09;2098151;28;20585;-70
2022/07/05 01:37:07;;;;;;;3.42;0.90;;;;;;;16.99;64.70;101090.41;2098743;28;20044;-70
2022/07/05 01:38:12;;;;;;;1.67;0.70;;;;;;;16.99;64.63;101084.97;2089336;28;20604;-70
2022/07/05 01:39:15;;;;;;;1.00;0.85;;;;;;;16.98;64.68;101086.09;2099844;28;20074;-70
2022/07/05 01:40:21;;;;;;;1.02;0.60;;;;;;;16.99;64.25;101087.69;2097936;28;20048;-70
2022/07/05 01:41:23;;;;;;;1.85;0.82;;;;;;;16.97;64.49;101085.31;2091239;28;20056;-70
2022/07/05 01:42:27;;;;;;;1.77;0.75;;;;;;;16.98;64.55;101097.75;2094812;28;20052;-69
2022/07/05 01:43:29;;;;;;;2.05;0.93;;;;;;;16.99;64.61;101087.69;2096670;28;20052;-70
2022/07/05 01:44:34;;;;;;;2.50;0.90;;;;;;;17.00;64.53;101092.03;2097458;28;20043;-69
2022/07/05 01:45:39;;;;;;;1.80;0.82;;;;;;;17.00;64.34;101092.03;2074782;28;20033;-69
2022/07/05 01:46:44;;;;;;;3.67;0.80;;;;;;;16.98;64.52;101089.63;2082152;28;20606;-69
2022/07/05 01:47:49;;;;;;;1.13;0.90;;;;;;;16.98;64.33;101088.81;2101059;28;20047;-70
2022/07/05 01:48:55;;;;;;;0.88;0.80;;;;;;;17.00;64.40;101086.59;2097677;28;20037;-69
2022/07/05 01:50:06;;;;;;;3.45;1.10;;;;;;;17.00;64.45;101086.59;2097176;28;20539;-70
2022/07/05 01:51:22;;;;;;;3.80;1.00;;;;;;;17.01;64.33;101085.47;2101119;28;20036;-70
2022/07/05 01:52:29;;;;;;;10.05;0.90;;;;;;;16.99;64.12;101087.69;2098051;28;20087;-70
2022/07/05 01:53:32;;;;;;;4.20;0.90;;;;;;;17.00;64.29;101092.03;2092835;28;20055;-70
2022/07/05 01:54:35;;;;;;;2.00;0.90;;;;;;;16.99;64.10;101084.97;2106050;28;20039;-70
2022/07/05 01:55:39;;;;;;;4.32;1.00;;;;;;;16.98;64.64;101083.38;2106572;28;20083;-70
2022/07/05 01:56:40;;;;;;;2.78;1.25;;;;;;;16.96;64.40;101080.16;2091594;28;20481;-70
2022/07/05 01:57:43;;;;;;;1.88;0.80;;;;;;;16.95;64.70;101089.44;2082542;28;20041;-70
2022/07/05 01:58:46;;;;;;;3.67;1.00;;;;;;;16.95;64.56;101078.56;2077353;28;20509;-70
2022/07/05 01:59:48;;;;;;;0.95;0.80;;;;;;;16.97;64.64;101081.78;2081762;28;20049;-69
2022/07/05 02:01:11;;;;;;;2.53;0.90;;;;;;;16.97;64.67;101076.34;2097339;28;20033;-70
2022/07/05 02:02:19;;;;;;;1.83;0.70;;;;;;;16.98;64.64;101080.66;2096011;28;20048;-70
2022/07/05 02:03:21;;;;;;;2.25;0.68;;;;;;;16.99;64.27;101079.53;2100176;28;20055;-70
2022/07/05 02:04:30;;;;;;;2.63;0.88;;;;;;;16.97;64.50;101077.16;2097418;28;20071;-69
2022/07/05 02:05:32;;;;;;;2.55;0.90;;;;;;;16.97;64.50;101082.59;2089657;28;20048;-70
2022/07/05 02:06:36;;;;;;;2.72;1.05;;;;;;;16.98;64.34;101083.38;2080722;28;20492;-70
2022/07/05 02:07:49;;;;;;;0.98;0.80;;;;;;;16.99;64.23;101083.09;2098861;28;20036;-70
2022/07/05 02:08:52;;;;;;;1.25;0.70;;;;;;;16.97;64.24;101081.78;2103205;28;20730;-70
2022/07/05 02:09:53;;;;;;;1.00;0.75;;;;;;;16.97;64.20;101081.78;2103521;28;20043;-69
2022/07/05 02:10:56;;;;;;;2.60;0.80;;;;;;;16.94;64.20;101080.50;2080864;28;20029;-69
2022/07/05 02:12:01;;;;;;;2.55;1.00;;;;;;;16.91;64.28;101076.47;2095130;27;20062;-69
2022/07/05 02:13:06;;;;;;;1.58;0.77;;;;;;;16.90;64.51;101080.31;2104686;28;20039;-69
2022/07/05 02:14:09;;;;;;;1.25;0.80;;;;;;;16.89;64.61;101075.16;2090144;28;20036;-69
2022/07/05 02:15:16;;;;;;;3.33;0.85;;;;;;;16.89;64.84;101075.97;2097598;28;20040;-69
2022/07/05 02:16:23;;;;;;;3.33;0.85;;;;;;;16.90;64.83;101077.59;2098341;28;20041;-69
2022/07/05 02:17:27;;;;;;;2.38;0.90;;;;;;;16.96;64.37;101085.59;2113499;27;20440;-69
2022/07/05 02:18:29;;;;;;;1.60;0.70;;;;;;;16.98;64.25;101083.38;2097203;28;20514;-69
2022/07/05 02:19:34;;;;;;;2.85;0.88;;;;;;;16.99;64.32;101079.53;2074405;28;20134;-69
2022/07/05 02:20:38;;;;;;;1.25;0.80;;;;;;;16.99;64.30;101077.66;2097017;28;20048;-69
2022/07/05 02:21:41;;;;;;;1.48;0.82;;;;;;;16.99;64.37;101074.94;2096873;28;20060;-70
2022/07/05 02:22:47;;;;;;;1.13;0.85;;;;;;;16.97;64.54;101069.00;2089483;28;20041;-70
2022/07/05 02:23:50;;;;;;;2.15;0.70;;;;;;;16.98;64.40;101075.22;2105527;28;20040;-70
2022/07/05 02:24:54;;;;;;;1.13;0.70;;;;;;;16.97;64.29;101070.94;2096572;28;20055;-70
2022/07/05 02:25:59;;;;;;;2.97;0.90;;;;;;;16.99;64.27;101079.53;2095357;28;20036;-70
2022/07/05 02:27:03;;;;;;;2.03;0.70;;;;;;;17.00;64.40;101079.25;2087155;28;20071;-70
2022/07/05 02:28:08;;;;;;;0.88;0.77;;;;;;;17.01;63.99;101082.78;2088758;28;20075;-70
2022/07/05 02:29:12;;;;;;;1.38;0.82;;;;;;;17.02;64.16;101077.00;2082515;28;20041;-70
2022/07/05 02:30:15;;;;;;;2.45;0.70;;;;;;;17.03;64.14;101075.13;2096145;28;20519;-70
2022/07/05 02:31:19;;;;;;;1.42;0.70;;;;;;;17.03;63.92;101081.34;2105150;28;20074;-70
2022/07/05 02:32:24;;;;;;;1.77;0.70;;;;;;;17.04;64.10;101074.81;2105641;28;20059;-70
2022/07/05 02:33:30;;;;;;;0.93;0.70;;;;;;;17.04;64.03;101076.72;2100218;28;20044;-70
2022/07/05 02:34:33;;;;;;;2.15;0.80;;;;;;;17.03;64.01;101077.84;2092791;28;20036;-70
2022/07/05 02:35:34;;;;;;;2.13;1.08;;;;;;;17.06;64.04;101079.94;2097751;28;20047;-69
2022/07/05 02:36:37;;;;;;;2.45;0.77;;;;;;;17.07;64.09;101076.09;2089477;28;20053;-70
2022/07/05 02:37:43;;;;;;;1.85;0.88;;;;;;;17.10;64.03;101080.91;2089135;28;20045;-70
2022/07/05 02:38:49;;;;;;;1.17;0.80;;;;;;;17.12;64.08;101078.69;2088785;28;20524;-70
2022/07/05 02:39:50;;;;;;;1.40;0.63;;;;;;;17.12;63.88;101078.69;2098549;28;20045;-69
2022/07/05 02:40:53;;;;;;;1.02;0.63;;;;;;;17.12;63.89;101082.22;2097424;28;20056;-70
2022/07/05 02:41:55;;;;;;;0.95;0.70;;;;;;;17.13;63.91;101080.28;2091691;28;20025;-70
2022/07/05 02:42:57;;;;;;;2.17;0.93;;;;;;;17.12;63.94;101086.84;2096753;28;20040;-70
2022/07/05 02:44:02;;;;;;;2.45;0.70;;;;;;;17.11;63.86;101080.59;2093185;28;20048;-70
2022/07/05 02:45:06;;;;;;;1.67;0.80;;;;;;;17.14;63.73;101081.91;2093564;28;20043;-70
2022/07/05 02:46:09;;;;;;;1.17;0.80;;;;;;;17.16;63.64;101079.69;2096386;28;20041;-70
2022/07/05 02:47:12;;;;;;;2.50;0.90;;;;;;;17.15;63.88;101083.53;2097542;28;20412;-69
2022/07/05 02:48:16;;;;;;;2.05;0.80;;;;;;;17.15;63.75;101083.53;2102182;28;20036;-70
2022/07/05 02:49:18;;;;;;;1.15;0.80;;;;;;;17.14;63.76;101088.13;2073072;28;20516;-70
2022/07/05 02:50:19;;;;;;;1.92;1.00;;;;;;;17.14;63.63;101084.63;2081665;28;20501;-70
2022/07/05 02:51:25;;;;;;;3.05;0.80;;;;;;;17.12;63.56;101078.69;2106763;27;20044;-69
2022/07/05 02:52:32;;;;;;;1.20;0.90;;;;;;;17.09;63.55;101090.19;2112081;28;20483;-69
2022/07/05 02:53:37;;;;;;;2.80;0.93;;;;;;;17.09;63.92;101090.19;2097770;28;20036;-69
2022/07/05 02:54:43;;;;;;;1.25;0.80;;;;;;;17.11;63.94;101087.94;2088564;28;20041;-69
2022/07/05 02:55:49;;;;;;;2.55;0.90;;;;;;;17.13;63.82;101086.53;2074080;28;20054;-69
2022/07/05 02:56:53;;;;;;;1.35;0.80;;;;;;;17.16;63.85;101092.47;2081401;28;20033;-70
2022/07/05 02:57:57;;;;;;;3.70;0.80;;;;;;;17.19;63.75;101092.66;2079503;28;20041;-70
2022/07/05 02:59:05;;;;;;;0.75;0.75;;;;;;;17.21;63.60;101093.13;2074303;28;20042;-70
2022/07/05 03:00:13;;;;;;;3.42;0.90;;;;;;;17.23;63.77;101098.25;2097290;28;20036;-70
2022/07/05 03:01:22;;;;;;;2.28;1.08;;;;;;;17.27;63.75;101096.53;2099202;28;20040;-70
2022/07/05 03:02:27;;;;;;;2.00;1.10;;;;;;;17.32;63.66;101093.69;2092952;28;20055;-69
2022/07/05 03:03:30;;;;;;;3.25;1.05;;;;;;;17.36;63.75;101100.88;2097413;28;20044;-70
2022/07/05 03:04:32;;;;;;;2.20;0.80;;;;;;;17.40;63.53;101094.84;2088174;28;20060;-70
2022/07/05 03:05:36;;;;;;;2.72;0.93;;;;;;;17.43;63.29;101094.22;2080702;28;20054;-70
2022/07/05 03:06:39;;;;;;;1.38;0.90;;;;;;;17.47;63.32;101089.78;2088995;28;20032;-70
2022/07/05 03:07:41;;;;;;;2.28;1.17;;;;;;;17.50;63.05;101094.59;2090862;28;20047;-70
2022/07/05 03:08:43;;;;;;;2.42;1.10;;;;;;;17.55;63.15;101091.72;2097911;28;20044;-70
2022/07/05 03:09:47;;;;;;;1.73;1.00;;;;;;;17.60;62.80;101088.88;2088331;28;20473;-70
2022/07/05 03:10:50;;;;;;;3.08;0.90;;;;;;;17.63;62.94;101082.81;2088126;28;20045;-70
2022/07/05 03:11:54;;;;;;;3.28;0.82;;;;;;;17.69;62.95;101091.66;2097247;28;20045;-70
2022/07/05 03:13:00;;;;;;;3.08;1.05;;;;;;;17.74;62.73;101086.84;2095509;28;20523;-70
2022/07/05 03:14:03;;;;;;;1.90;0.98;;;;;;;17.79;62.51;101092.19;2089970;28;20036;-70
2022/07/05 03:15:06;;;;;;;4.03;1.10;;;;;;;17.87;62.35;101087.88;2096769;28;20037;-69
2022/07/05 03:16:08;;;;;;;1.58;1.00;;;;;;;17.90;62.29;101078.31;2088993;28;20041;-70
2022/07/05 03:17:12;;;;;;;1.48;1.10;;;;;;;17.96;62.00;101085.19;2084357;28;20041;-69
2022/07/05 03:18:14;;;;;;;2.53;1.10;;;;;;;18.02;62.04;101089.38;2081689;28;20033;-70
2022/07/05 03:19:17;;;;;;;4.00;1.27;;;;;;;18.06;61.77;101087.63;2073094;28;20090;-70
2022/07/05 03:20:19;;;;;;;1.90;1.00;;;;;;;18.12;61.52;101091.00;2088310;28;20084;-69
2022/07/05 03:21:21;;;;;;;3.53;1.20;;;;;;;18.16;61.23;101092.81;2088323;28;20041;-71
2022/07/05 03:22:23;;;;;;;2.85;1.15;;;;;;;18.20;61.30;101084.81;2092488;28;20049;-70
2022/07/05 03:23:26;;;;;;;2.60;1.00;;;;;;;18.29;61.09;101089.13;2095278;28;20048;-69
2022/07/05 03:24:31;;;;;;;2.22;1.02;;;;;;;18.39;60.87;101084.50;2097332;28;20044;-69
2022/07/05 03:25:33;;;;;;;2.92;1.15;;;;;;;18.48;60.93;101080.69;2097235;28;20052;-69
2022/07/05 03:26:37;;;;;;;3.08;1.02;;;;;;;18.58;60.71;101079.56;2088075;28;20444;-69
2022/07/05 03:27:39;;;;;;;1.60;0.90;;;;;;;18.69;60.34;101080.81;2088412;28;20424;-70
2022/07/05 03:28:41;;;;;;;4.32;1.20;;;;;;;18.82;59.95;101089.19;2079746;28;20129;-70
2022/07/05 03:29:43;;;;;;;2.15;1.20;;;;;;;18.94;59.42;101089.34;2080755;28;20513;-70
2022/07/05 03:30:48;;;;;;;4.75;1.20;;;;;;;19.01;59.29;101086.97;2079883;28;20053;-69
2022/07/05 03:31:49;;;;;;;4.53;1.00;;;;;;;19.11;59.11;101092.06;2081214;28;20037;-69
2022/07/05 03:32:52;;;;;;;2.33;1.00;;;;;;;19.26;58.86;101089.94;2088933;28;20048;-70
2022/07/05 03:33:58;;;;;;;3.10;1.10;;;;;;;19.36;58.65;101093.16;2088021;28;20052;-70
2022/07/05 03:35:02;;;;;;;7.05;1.08;;;;;;;19.48;57.89;101095.19;2082301;28;20041;-69
2022/07/05 03:36:04;;;;;;;4.60;1.00;;;;;;;19.61;57.81;101094.19;2112492;28;20047;-70
2022/07/05 03:37:06;;;;;;;1.98;1.00;;;;;;;19.72;57.25;101096.59;2093632;28;20043;-68
2022/07/05 03:38:09;;;;;;;2.78;1.05;;;;;;;19.84;57.01;101096.72;2079229;28;20421;-70
2022/07/05 03:39:11;;;;;;;2.90;1.10;;;;;;;19.97;56.96;101092.16;2089122;28;20394;-69
2022/07/05 03:40:15;;;;;;;2.88;1.35;;;;;;;20.00;56.72;101089.56;2090101;28;20109;-69
2022/07/05 03:41:19;;;;;;;3.58;1.00;;;;;;;19.82;56.76;101097.00;2106788;28;20035;-68
2022/07/05 03:42:25;;;;;;;2.30;0.90;;;;;;;19.87;56.97;101091.38;2096606;28;20045;-68
2022/07/05 03:43:27;;;;;;;4.82;1.20;;;;;;;20.09;56.19;101093.03;2077701;28;20561;-68
2022/07/05 03:44:32;;;;;;;2.55;1.10;;;;;;;20.31;55.81;101091.94;2082256;28;20041;-68
2022/07/05 03:45:34;;;;;;;3.33;1.20;;;;;;;20.55;55.48;101099.53;2090648;28;20175;-68
2022/07/05 03:46:37;;;;;;;1.98;0.82;;;;;;;20.75;54.94;101097.94;2102726;28;20052;-70
2022/07/05 03:47:39;;;;;;;2.10;1.20;;;;;;;20.93;54.38;101104.06;2098092;28;20056;-70
2022/07/05 03:48:44;;;;;;;2.67;1.13;;;;;;;21.11;54.03;101098.41;2098232;28;20044;-70
2022/07/05 03:49:50;;;;;;;2.67;1.15;;;;;;;21.24;53.58;101102.78;2082911;28;20517;-69
2022/07/05 03:50:52;;;;;;;3.90;1.10;;;;;;;21.35;53.21;101098.53;2074422;28;20042;-70
2022/07/05 03:51:54;;;;;;;3.13;0.93;;;;;;;21.48;53.05;101102.88;2087335;28;20033;-70
2022/07/05 03:52:58;;;;;;;0.93;0.75;;;;;;;21.61;52.68;101108.38;2090707;28;20092;-69
2022/07/05 03:54:06;;;;;;;4.88;1.17;;;;;;;21.75;52.25;101106.09;2099133;28;20440;-70
2022/07/05 03:55:11;;;;;;;2.38;0.98;;;;;;;21.93;51.96;101107.47;2090932;28;20657;-70
2022/07/05 03:56:19;;;;;;;6.90;0.90;;;;;;;22.09;51.62;101110.31;2098968;28;20032;-70
2022/07/05 03:57:23;;;;;;;4.10;1.02;;;;;;;22.26;51.14;101114.81;2095103;28;20064;-70
2022/07/05 03:58:25;;;;;;;2.58;1.02;;;;;;;22.40;50.71;101117.97;2089967;28;20489;-69
2022/07/05 03:59:27;;;;;;;2.33;0.75;;;;;;;22.55;50.21;101121.16;2074097;28;20580;-69
2022/07/05 04:00:31;;;;;;;2.70;0.90;;;;;;;22.69;49.90;101110.59;2093219;28;20041;-69
2022/07/05 04:01:39;;;;;;;2.08;1.00;;;;;;;22.80;49.52;101117.19;2098490;28;20055;-69
2022/07/05 04:02:42;;;;;;;2.88;0.90;;;;;;;22.95;49.33;101112.13;2099068;28;20645;-69
2022/07/05 04:03:47;;;;;;;2.15;0.93;;;;;;;23.09;48.78;101115.28;2097899;28;20040;-69
2022/07/05 04:04:52;;;;;;;4.13;1.00;;;;;;;23.19;48.46;101119.47;2067184;28;20062;-69
2022/07/05 04:05:57;;;;;;;6.10;2.20;;;;;;;23.31;48.13;101120.19;2083236;28;20040;-69
2022/07/05 04:06:59;;;;;;;2.80;1.10;;;;;;;23.40;47.86;101122.00;2098644;28;20045;-69
2022/07/05 04:08:00;;;;;;;2.35;1.15;;;;;;;23.54;47.51;101127.84;2092976;28;20043;-69
2022/07/05 04:09:07;;;;;;;3.75;1.00;;;;;;;23.67;47.56;101120.31;2088606;28;20566;-69
2022/07/05 04:10:09;;;;;;;9.07;1.30;;;;;;;23.80;47.29;101125.41;2090896;28;20032;-69
2022/07/05 04:11:15;;;;;;;4.85;1.40;;;;;;;23.91;47.03;101128.41;2090089;28;20056;-69
2022/07/05 04:12:18;;;;;;;4.10;1.20;;;;;;;24.05;46.60;101131.53;2089758;28;20079;-69
2022/07/05 04:13:22;;;;;;;3.85;0.95;;;;;;;24.15;46.26;101119.19;2082122;28;20057;-68
2022/07/05 04:14:26;;;;;;;1.90;0.95;;;;;;;24.25;45.97;101120.59;2083273;28;20049;-68
2022/07/05 04:15:31;;;;;;;2.45;1.00;;;;;;;24.37;45.54;101119.66;2094118;28;20388;-68
2022/07/05 04:16:34;;;;;;;4.30;1.25;;;;;;;24.50;45.79;101121.16;2082813;28;20049;-69
2022/07/05 04:17:47;;;;;;;4.65;1.20;;;;;;;24.70;45.38;101120.03;2095522;28;20119;-70
2022/07/05 04:18:49;;;;;;;2.15;1.13;;;;;;;24.82;44.72;101126.56;2113837;28;20040;-70
2022/07/05 04:19:53;;;;;;;3.20;1.10;;;;;;;24.94;44.23;101126.41;2087373;28;20041;-70
2022/07/05 04:20:57;;;;;;;2.58;1.52;;;;;;;25.06;44.30;101128.97;2086768;28;20517;-70
2022/07/05 04:22:00;;;;;;;3.58;1.23;;;;;;;25.20;43.82;101126.53;2090920;28;20043;-70
2022/07/05 04:23:04;;;;;;;4.90;1.83;;;;;;;25.28;43.60;101124.72;2098731;28;20047;-70
2022/07/05 04:24:10;;;;;;;8.40;2.17;;;;;;;25.34;43.70;101120.50;2081131;28;20034;-70
2022/07/05 04:25:18;;;;;;;7.82;2.22;;;;;;;25.45;43.15;101122.66;2084918;28;20041;-70
2022/07/05 04:26:25;;;;;;;6.55;1.40;;;;;;;25.58;43.08;101122.13;2089488;28;20045;-69
2022/07/05 04:27:27;;;;;;;9.13;1.27;;;;;;;25.73;42.57;101122.38;2098890;28;20057;-68
2022/07/05 04:28:32;;;;;;;3.22;1.33;;;;;;;25.88;42.64;101126.94;2104415;28;20056;-69
2022/07/05 04:29:36;;;;;;;3.60;1.08;;;;;;;26.03;42.26;101134.28;2089320;28;20060;-67
2022/07/05 04:30:39;;;;;;;3.47;1.17;;;;;;;26.09;42.03;101130.06;2095547;28;20044;-67
2022/07/05 04:31:44;;;;;;;2.25;1.00;;;;;;;26.21;41.60;101126.28;2097423;28;20048;-68
2022/07/05 04:32:46;;;;;;;5.60;1.00;;;;;;;26.35;41.65;101129.25;2090717;28;20416;-68
2022/07/05 04:33:48;;;;;;;2.58;0.90;;;;;;;26.49;41.11;101125.94;2098652;28;20424;-67
2022/07/05 04:34:55;;;;;;;6.20;1.10;;;;;;;26.53;40.83;101137.81;2103091;28;20044;-67
2022/07/05 04:36:01;;;;;;;1.25;0.80;;;;;;;26.67;40.56;101128.94;2098600;28;20041;-67
2022/07/05 04:37:04;;;;;;;1.98;0.90;;;;;;;26.77;40.41;101130.25;2091580;28;20049;-68
2022/07/05 04:38:09;;;;;;;3.50;0.90;;;;;;;26.91;40.13;101122.13;2092457;28;20519;-68
2022/07/05 04:39:13;;;;;;;5.60;1.17;;;;;;;27.06;39.65;101119.53;2066246;28;20538;-67
2022/07/05 04:40:29;;;;;;;5.75;1.20;;;;;;;27.11;39.88;101124.69;2086373;28;20046;-67
2022/07/05 04:41:33;;;;;;;3.28;1.10;;;;;;;27.27;39.19;101111.53;2103392;28;20052;-67
2022/07/05 04:42:35;;;;;;;5.32;1.10;;;;;;;27.36;39.33;101114.72;2089130;28;20052;-67
2022/07/05 04:43:38;;;;;;;3.30;1.92;;;;;;;27.48;38.87;101119.19;2095053;28;20036;-67
2022/07/05 04:44:46;;;;;;;5.78;2.72;;;;;;;27.55;39.19;101113.72;2085919;28;20041;-68
2022/07/05 04:45:50;;;;;;;6.95;1.95;;;;;;;27.69;38.42;101113.06;2094967;28;20044;-68
2022/07/05 04:46:53;;;;;;;9.77;4.70;;;;;;;27.84;38.75;101114.81;2094412;28;20052;-67
2022/07/05 04:47:59;;;;;;;6.22;2.10;;;;;;;28.04;37.95;101111.78;2106018;28;20035;-68
2022/07/05 04:49:02;;;;;;;5.35;2.33;;;;;;;28.21;38.00;101116.63;2099572;28;20037;-68
2022/07/05 04:50:05;;;;;;;4.45;2.20;;;;;;;28.39;37.53;101112.00;2095234;28;20044;-68
2022/07/05 04:51:09;;;;;;;3.38;1.92;;;;;;;28.52;37.09;101112.47;2082839;28;20037;-68
2022/07/05 04:52:17;;;;;;;5.05;1.60;;;;;;;28.64;37.02;101111.34;2076342;28;20037;-67
2022/07/05 04:53:20;;;;;;;4.60;1.50;;;;;;;28.79;36.88;101112.22;2092492;28;20061;-68
2022/07/05 04:54:22;;;;;;;5.18;1.30;;;;;;;28.92;36.72;101102.38;2115587;28;20042;-68
2022/07/05 04:55:27;;;;;;;5.65;1.35;;;;;;;29.05;36.36;101105.59;2112690;28;20032;-67
2022/07/05 04:56:29;;;;;;;4.45;1.20;;;;;;;29.21;36.22;101110.75;2102790;28;20516;-68
2022/07/05 04:57:56;;;;;;;4.30;1.08;;;;;;;29.38;35.90;101109.97;2100377;28;20059;-67
2022/07/05 04:59:00;;;;;;;4.40;1.30;;;;;;;29.48;35.50;101108.44;2098136;28;20052;-67
2022/07/05 05:00:05;;;;;;;5.50;1.45;;;;;;;29.66;35.36;101114.00;2087769;28;20134;-67